createdAt,value
2022-08-25T00:00:16.932Z,1010.95
2022-08-25T00:01:16.921Z,1010.93
2022-08-25T00:02:16.934Z,1010.95
2022-08-25T00:03:16.893Z,1010.91
2022-08-25T00:04:16.878Z,1010.90
2022-08-25T00:05:16.895Z,1010.90
2022-08-25T00:06:16.844Z,1010.93
2022-08-25T00:07:18.549Z,1010.88
2022-08-25T00:08:16.819Z,1010.89
2022-08-25T00:09:16.805Z,1010.88
2022-08-25T00:10:16.794Z,1010.89
2022-08-25T00:11:16.776Z,1010.94
2022-08-25T00:12:16.759Z,1010.92
2022-08-25T00:13:16.744Z,1010.91
2022-08-25T00:14:16.730Z,1010.95
2022-08-25T00:15:16.720Z,1010.89
2022-08-25T00:16:16.772Z,1010.90
2022-08-25T00:17:16.687Z,1010.91
2022-08-25T00:18:19.783Z,1010.92
2022-08-25T00:19:16.658Z,1010.93
2022-08-25T00:20:16.642Z,1010.93
2022-08-25T00:21:16.629Z,1010.93
2022-08-25T00:22:16.762Z,1010.93
2022-08-25T00:23:16.599Z,1010.96
2022-08-25T00:24:16.586Z,1010.95
2022-08-25T00:25:16.568Z,1010.93
2022-08-25T00:26:16.555Z,1010.94
2022-08-25T00:27:16.541Z,1010.96
2022-08-25T00:28:16.526Z,1010.94
2022-08-25T00:29:16.514Z,1010.91
2022-08-25T00:30:16.496Z,1010.91
2022-08-25T00:31:16.655Z,1010.94
2022-08-25T00:32:16.468Z,1010.91
2022-08-25T00:33:16.452Z,1010.91
2022-08-25T00:34:16.437Z,1010.91
2022-08-25T00:35:16.427Z,1010.92
2022-08-25T00:36:16.407Z,1010.92
2022-08-25T00:37:16.395Z,1010.93
2022-08-25T00:38:16.376Z,1010.94
2022-08-25T00:39:16.366Z,1010.92
2022-08-25T00:40:16.438Z,1010.95
2022-08-25T00:41:16.339Z,1010.96
2022-08-25T00:42:16.503Z,1010.96
2022-08-25T00:43:16.307Z,1010.95
2022-08-25T00:44:16.290Z,1010.97
2022-08-25T00:45:16.276Z,1010.95
2022-08-25T00:46:16.307Z,1010.99
2022-08-25T00:47:16.249Z,1010.96
2022-08-25T00:48:16.233Z,1010.93
2022-08-25T00:49:24.875Z,1010.95
2022-08-25T00:50:16.201Z,1010.97
2022-08-25T00:51:16.190Z,1010.96
2022-08-25T00:52:16.175Z,1010.97
2022-08-25T00:53:16.162Z,1010.98
2022-08-25T00:54:16.144Z,1010.96
2022-08-25T00:55:16.133Z,1010.97
2022-08-25T00:56:16.115Z,1010.98
2022-08-25T00:57:16.101Z,1010.99
2022-08-25T00:58:16.086Z,1010.96
2022-08-25T00:59:16.071Z,1010.97
2022-08-25T01:00:16.054Z,1010.98
2022-08-25T01:01:16.116Z,1010.97
2022-08-25T01:02:16.077Z,1010.97
2022-08-25T01:03:16.010Z,1011.00
2022-08-25T01:04:15.996Z,1010.97
2022-08-25T01:05:15.982Z,1010.99
2022-08-25T01:06:15.966Z,1011.00
2022-08-25T01:07:17.385Z,1011.00
2022-08-25T01:08:16.303Z,1011.00
2022-08-25T01:09:15.920Z,1010.97
2022-08-25T01:10:15.908Z,1010.97
2022-08-25T01:11:15.892Z,1010.99
2022-08-25T01:12:15.878Z,1010.98
2022-08-25T01:13:16.369Z,1010.97
2022-08-25T01:14:15.845Z,1010.94
2022-08-25T01:15:15.832Z,1010.98
2022-08-25T01:16:15.861Z,1010.99
2022-08-25T01:17:15.804Z,1010.96
2022-08-25T01:18:15.787Z,1010.96
2022-08-25T01:19:15.771Z,1011.00
2022-08-25T01:20:15.755Z,1010.93
2022-08-25T01:21:15.743Z,1011.00
2022-08-25T01:22:15.728Z,1010.96
2022-08-25T01:23:15.713Z,1010.97
2022-08-25T01:24:15.698Z,1011.00
2022-08-25T01:25:15.683Z,1011.00
2022-08-25T01:26:15.667Z,1010.98
2022-08-25T01:27:15.654Z,1011.01
2022-08-25T01:28:15.638Z,1010.97
2022-08-25T01:29:15.623Z,1011.01
2022-08-25T01:30:15.609Z,1011.00
2022-08-25T01:31:23.666Z,1011.02
2022-08-25T01:32:15.578Z,1011.02
2022-08-25T01:33:15.565Z,1011.01
2022-08-25T01:34:15.547Z,1011.02
2022-08-25T01:35:15.532Z,1011.04
2022-08-25T01:36:15.516Z,1011.04
2022-08-25T01:37:15.501Z,1010.99
2022-08-25T01:38:15.487Z,1010.99
2022-08-25T01:39:15.475Z,1010.98
2022-08-25T01:40:15.509Z,1010.96
2022-08-25T01:41:15.440Z,1011.00
2022-08-25T01:42:15.426Z,1010.99
2022-08-25T01:43:15.411Z,1010.96
2022-08-25T01:44:16.069Z,1010.93
2022-08-25T01:45:15.381Z,1010.92
2022-08-25T01:46:15.434Z,1010.93
2022-08-25T01:47:15.365Z,1010.94
2022-08-25T01:48:15.371Z,1010.92
2022-08-25T01:49:15.358Z,1010.91
2022-08-25T01:50:15.313Z,1010.90
2022-08-25T01:51:15.351Z,1010.93
2022-08-25T01:52:15.276Z,1010.94
2022-08-25T01:53:15.262Z,1010.94
2022-08-25T01:54:15.242Z,1010.92
2022-08-25T01:55:15.230Z,1010.95
2022-08-25T01:56:15.216Z,1010.94
2022-08-25T01:57:15.200Z,1010.96
2022-08-25T01:58:15.184Z,1010.96
2022-08-25T01:59:15.169Z,1010.95
2022-08-25T02:00:15.155Z,1010.97
2022-08-25T02:01:15.165Z,1010.98
2022-08-25T02:02:15.216Z,1010.97
2022-08-25T02:03:19.049Z,1010.97
2022-08-25T02:04:15.091Z,1010.99
2022-08-25T02:05:15.081Z,1010.99
2022-08-25T02:06:15.063Z,1010.96
2022-08-25T02:07:15.074Z,1010.98
2022-08-25T02:08:15.034Z,1010.98
2022-08-25T02:09:15.014Z,1010.97
2022-08-25T02:10:15.000Z,1010.94
2022-08-25T02:11:14.986Z,1010.93
2022-08-25T02:12:14.976Z,1010.94
2022-08-25T02:13:14.956Z,1010.94
2022-08-25T02:14:14.939Z,1010.94
2022-08-25T02:15:14.924Z,1010.92
2022-08-25T02:16:15.004Z,1010.90
2022-08-25T02:17:14.893Z,1010.91
2022-08-25T02:18:14.879Z,1010.88
2022-08-25T02:19:14.864Z,1010.94
2022-08-25T02:20:14.849Z,1010.90
2022-08-25T02:21:14.832Z,1010.90
2022-08-25T02:22:14.816Z,1010.88
2022-08-25T02:23:14.803Z,1010.91
2022-08-25T02:24:14.828Z,1010.92
2022-08-25T02:25:14.780Z,1010.85
2022-08-25T02:26:14.783Z,1010.91
2022-08-25T02:27:14.740Z,1010.92
2022-08-25T02:28:14.726Z,1010.91
2022-08-25T02:29:14.763Z,1010.91
2022-08-25T02:30:14.748Z,1010.92
2022-08-25T02:31:14.697Z,1010.93
2022-08-25T02:32:14.663Z,1010.92
2022-08-25T02:33:14.651Z,1010.95
2022-08-25T02:34:14.634Z,1010.92
2022-08-25T02:35:14.621Z,1010.94
2022-08-25T02:36:14.600Z,1010.92
2022-08-25T02:37:14.589Z,1010.94
2022-08-25T02:38:14.568Z,1010.91
2022-08-25T02:39:14.556Z,1010.91
2022-08-25T02:40:14.589Z,1010.91
2022-08-25T02:41:14.526Z,1010.88
2022-08-25T02:42:14.511Z,1010.86
2022-08-25T02:43:14.497Z,1010.89
2022-08-25T02:44:14.480Z,1010.91
2022-08-25T02:45:14.465Z,1010.87
2022-08-25T02:46:14.503Z,1010.88
2022-08-25T02:47:14.433Z,1010.87
2022-08-25T02:48:14.418Z,1010.89
2022-08-25T02:49:14.401Z,1010.89
2022-08-25T02:50:14.387Z,1010.92
2022-08-25T02:51:14.372Z,1010.94
2022-08-25T02:52:14.357Z,1010.96
2022-08-25T02:53:14.338Z,1010.91
2022-08-25T02:54:14.324Z,1010.93
2022-08-25T02:55:14.484Z,1010.92
2022-08-25T02:56:14.296Z,1010.94
2022-08-25T02:57:14.275Z,1010.93
2022-08-25T02:58:14.265Z,1010.95
2022-08-25T02:59:14.247Z,1010.92
2022-08-25T03:00:14.235Z,1010.95
2022-08-25T03:01:14.301Z,1010.96
2022-08-25T03:02:14.200Z,1010.91
2022-08-25T03:03:14.184Z,1010.94
2022-08-25T03:04:14.170Z,1010.96
2022-08-25T03:05:14.290Z,1010.95
2022-08-25T03:06:14.140Z,1010.92
2022-08-25T03:07:14.121Z,1010.90
2022-08-25T03:08:14.108Z,1010.91
2022-08-25T03:09:14.090Z,1010.95
2022-08-25T03:10:14.078Z,1010.88
2022-08-25T03:11:14.060Z,1010.91
2022-08-25T03:12:14.045Z,1010.89
2022-08-25T03:13:14.031Z,1010.87
2022-08-25T03:14:14.017Z,1010.89
2022-08-25T03:15:13.996Z,1010.90
2022-08-25T03:16:14.031Z,1010.88
2022-08-25T03:17:14.074Z,1010.88
2022-08-25T03:18:14.161Z,1010.86
2022-08-25T03:19:13.988Z,1010.87
2022-08-25T03:20:13.943Z,1010.88
2022-08-25T03:21:13.917Z,1010.88
2022-08-25T03:22:13.892Z,1010.87
2022-08-25T03:23:13.872Z,1010.82
2022-08-25T03:24:13.859Z,1010.85
2022-08-25T03:25:13.840Z,1010.83
2022-08-25T03:26:13.825Z,1010.85
2022-08-25T03:27:13.811Z,1010.83
2022-08-25T03:28:13.796Z,1010.79
2022-08-25T03:29:13.785Z,1010.80
2022-08-25T03:30:13.765Z,1010.81
2022-08-25T03:31:13.751Z,1010.78
2022-08-25T03:32:13.829Z,1010.80
2022-08-25T03:33:13.715Z,1010.82
2022-08-25T03:34:13.704Z,1010.78
2022-08-25T03:35:13.683Z,1010.75
2022-08-25T03:36:13.673Z,1010.75
2022-08-25T03:37:13.656Z,1010.70
2022-08-25T03:38:13.641Z,1010.70
2022-08-25T03:39:13.623Z,1010.68
2022-08-25T03:40:15.408Z,1010.62
2022-08-25T03:41:13.591Z,1010.57
2022-08-25T03:42:13.576Z,1010.63
2022-08-25T03:43:13.559Z,1010.59
2022-08-25T03:44:13.545Z,1010.58
2022-08-25T03:45:13.526Z,1010.62
2022-08-25T03:46:13.541Z,1010.56
2022-08-25T03:47:13.496Z,1010.57
2022-08-25T03:48:13.484Z,1010.52
2022-08-25T03:49:13.467Z,1010.53
2022-08-25T03:50:13.452Z,1010.52
2022-08-25T03:51:13.432Z,1010.54
2022-08-25T03:52:13.421Z,1010.51
2022-08-25T03:53:13.402Z,1010.50
2022-08-25T03:54:13.389Z,1010.48
2022-08-25T03:55:13.370Z,1010.44
2022-08-25T03:56:13.357Z,1010.47
2022-08-25T03:57:13.339Z,1010.45
2022-08-25T03:58:13.324Z,1010.45
2022-08-25T03:59:13.306Z,1010.43
2022-08-25T04:00:13.294Z,1010.46
2022-08-25T04:01:13.356Z,1010.46
2022-08-25T04:02:13.305Z,1010.47
2022-08-25T04:03:13.246Z,1010.45
2022-08-25T04:04:13.230Z,1010.48
2022-08-25T04:05:13.214Z,1010.45
2022-08-25T04:06:13.198Z,1010.48
2022-08-25T04:07:13.179Z,1010.43
2022-08-25T04:08:13.164Z,1010.45
2022-08-25T04:09:13.149Z,1010.46
2022-08-25T04:10:13.136Z,1010.44
2022-08-25T04:11:13.121Z,1010.40
2022-08-25T04:12:13.102Z,1010.43
2022-08-25T04:13:13.085Z,1010.45
2022-08-25T04:14:15.939Z,1010.47
2022-08-25T04:15:13.052Z,1010.45
2022-08-25T04:16:13.098Z,1010.47
2022-08-25T04:17:13.024Z,1010.49
2022-08-25T04:18:13.008Z,1010.47
2022-08-25T04:19:12.989Z,1010.46
2022-08-25T04:20:14.046Z,1010.48
2022-08-25T04:21:12.958Z,1010.46
2022-08-25T04:22:13.299Z,1010.50
2022-08-25T04:23:12.925Z,1010.46
2022-08-25T04:24:12.911Z,1010.43
2022-08-25T04:25:12.897Z,1010.46
2022-08-25T04:26:12.881Z,1010.42
2022-08-25T04:27:12.892Z,1010.41
2022-08-25T04:28:12.878Z,1010.41
2022-08-25T04:29:12.835Z,1010.40
2022-08-25T04:30:12.815Z,1010.40
2022-08-25T04:31:12.800Z,1010.41
2022-08-25T04:32:12.830Z,1010.40
2022-08-25T04:33:12.766Z,1010.41
2022-08-25T04:34:29.297Z,1010.39
2022-08-25T04:35:12.739Z,1010.36
2022-08-25T04:36:13.054Z,1010.39
2022-08-25T04:37:12.705Z,1010.38
2022-08-25T04:38:12.687Z,1010.32
2022-08-25T04:39:12.672Z,1010.35
2022-08-25T04:40:12.736Z,1010.32
2022-08-25T04:41:12.694Z,1010.30
2022-08-25T04:42:12.622Z,1010.30
2022-08-25T04:43:12.639Z,1010.29
2022-08-25T04:44:12.594Z,1010.26
2022-08-25T04:45:12.575Z,1010.31
2022-08-25T04:46:12.671Z,1010.28
2022-08-25T04:47:12.542Z,1010.27
2022-08-25T04:48:12.559Z,1010.26
2022-08-25T04:49:12.511Z,1010.28
2022-08-25T04:50:12.496Z,1010.29
2022-08-25T04:51:12.481Z,1010.22
2022-08-25T04:52:14.319Z,1010.24
2022-08-25T04:53:12.444Z,1010.23
2022-08-25T04:54:12.432Z,1010.22
2022-08-25T04:55:12.414Z,1010.24
2022-08-25T04:56:12.407Z,1010.25
2022-08-25T04:57:12.383Z,1010.24
2022-08-25T04:58:14.855Z,1010.21
2022-08-25T04:59:12.553Z,1010.25
2022-08-25T05:00:12.336Z,1010.26
2022-08-25T05:01:12.385Z,1010.24
2022-08-25T05:02:12.305Z,1010.22
2022-08-25T05:03:12.285Z,1010.21
2022-08-25T05:04:14.678Z,1010.21
2022-08-25T05:05:12.254Z,1010.21
2022-08-25T05:06:15.816Z,1010.20
2022-08-25T05:07:12.221Z,1010.22
2022-08-25T05:08:12.412Z,1010.18
2022-08-25T05:09:12.229Z,1010.21
2022-08-25T05:10:12.509Z,1010.24
2022-08-25T05:11:12.158Z,1010.24
2022-08-25T05:12:12.611Z,1010.27
2022-08-25T05:13:12.124Z,1010.28
2022-08-25T05:14:12.110Z,1010.32
2022-08-25T05:15:12.136Z,1010.27
2022-08-25T05:16:12.142Z,1010.29
2022-08-25T05:17:12.062Z,1010.31
2022-08-25T05:18:12.051Z,1010.33
2022-08-25T05:19:12.063Z,1010.30
2022-08-25T05:20:12.015Z,1010.32
2022-08-25T05:21:11.999Z,1010.32
2022-08-25T05:22:11.982Z,1010.32
2022-08-25T05:23:12.195Z,1010.35
2022-08-25T05:24:11.953Z,1010.34
2022-08-25T05:25:11.934Z,1010.34
2022-08-25T05:26:14.455Z,1010.36
2022-08-25T05:27:11.930Z,1010.33
2022-08-25T05:28:11.888Z,1010.36
2022-08-25T05:29:11.915Z,1010.31
2022-08-25T05:30:11.862Z,1010.28
2022-08-25T05:31:11.905Z,1010.31
2022-08-25T05:32:11.965Z,1010.32
2022-08-25T05:33:11.806Z,1010.36
2022-08-25T05:34:11.817Z,1010.32
2022-08-25T05:35:11.823Z,1010.34
2022-08-25T05:36:11.762Z,1010.33
2022-08-25T05:37:12.331Z,1010.31
2022-08-25T05:38:15.304Z,1010.29
2022-08-25T05:39:11.713Z,1010.32
2022-08-25T05:40:11.799Z,1010.29
2022-08-25T05:43:35.373Z,1010.28
2022-08-25T05:44:19.332Z,1010.29
2022-08-25T05:45:20.180Z,1010.29
2022-08-25T05:46:16.203Z,1010.33
2022-08-25T05:47:16.093Z,1010.31
2022-08-25T05:48:16.080Z,1010.26
2022-08-25T05:49:16.061Z,1010.26
2022-08-25T05:50:16.047Z,1010.21
2022-08-25T05:51:16.031Z,1010.20
2022-08-25T05:52:20.073Z,1010.20
2022-08-25T05:53:15.998Z,1010.22
2022-08-25T05:54:15.984Z,1010.21
2022-08-25T05:55:15.968Z,1010.25
2022-08-25T05:56:15.950Z,1010.25
2022-08-25T05:57:15.933Z,1010.23
2022-08-25T05:58:15.918Z,1010.21
2022-08-25T05:59:15.931Z,1010.22
2022-08-25T06:00:15.887Z,1010.22
2022-08-25T06:01:15.965Z,1010.22
2022-08-25T06:02:15.856Z,1010.24
2022-08-25T06:03:15.878Z,1010.22
2022-08-25T06:04:15.856Z,1010.24
2022-08-25T06:05:15.805Z,1010.23
2022-08-25T06:06:15.792Z,1010.25
2022-08-25T06:07:15.772Z,1010.24
2022-08-25T06:08:15.760Z,1010.22
2022-08-25T06:10:15.756Z,1010.21
2022-08-25T06:11:15.946Z,1010.26
2022-08-25T06:13:15.679Z,1010.20
2022-08-25T06:14:15.694Z,1010.22
2022-08-25T06:15:15.676Z,1010.19
2022-08-25T06:16:15.912Z,1010.13
2022-08-25T06:17:15.641Z,1010.13
2022-08-25T06:18:15.836Z,1010.16
2022-08-25T06:19:15.611Z,1010.15
2022-08-25T06:20:15.602Z,1010.12
2022-08-25T06:21:15.579Z,1010.12
2022-08-25T06:22:15.568Z,1010.17
2022-08-25T06:23:15.548Z,1010.17
2022-08-25T06:24:16.019Z,1010.16
2022-08-25T06:26:21.107Z,1010.18
2022-08-25T06:27:15.492Z,1010.19
2022-08-25T06:28:15.441Z,1010.21
2022-08-25T06:29:15.458Z,1010.20
2022-08-25T06:30:16.138Z,1010.23
2022-08-25T06:31:15.454Z,1010.19
2022-08-25T06:32:15.403Z,1010.20
2022-08-25T06:33:15.391Z,1010.22
2022-08-25T06:34:15.374Z,1010.20
2022-08-25T06:35:15.565Z,1010.21
2022-08-25T06:36:15.359Z,1010.23
2022-08-25T06:37:15.543Z,1010.21
2022-08-25T06:38:15.333Z,1010.23
2022-08-25T06:39:15.298Z,1010.21
2022-08-25T06:40:15.344Z,1010.21
2022-08-25T06:42:15.221Z,1010.25
2022-08-25T06:43:15.205Z,1010.21
2022-08-25T06:44:15.188Z,1010.21
2022-08-25T06:45:15.174Z,1010.23
2022-08-25T06:46:15.157Z,1010.19
2022-08-25T06:47:15.206Z,1010.22
2022-08-25T06:48:15.124Z,1010.22
2022-08-25T06:49:15.111Z,1010.21
2022-08-25T06:50:15.098Z,1010.26
2022-08-25T06:51:15.077Z,1010.26
2022-08-25T06:52:15.063Z,1010.25
2022-08-25T06:53:15.045Z,1010.32
2022-08-25T06:54:15.060Z,1010.30
2022-08-25T06:55:15.013Z,1010.28
2022-08-25T06:56:15.002Z,1010.27
2022-08-25T06:57:14.992Z,1010.29
2022-08-25T06:58:14.969Z,1010.26
2022-08-25T06:59:14.960Z,1010.29
2022-08-25T07:00:14.941Z,1010.29
2022-08-25T07:01:15.885Z,1010.24
2022-08-25T07:02:14.946Z,1010.28
2022-08-25T07:03:14.947Z,1010.25
2022-08-25T07:04:14.877Z,1010.23
2022-08-25T07:05:26.974Z,1010.20
2022-08-25T07:06:14.843Z,1010.19
2022-08-25T07:07:14.828Z,1010.20
2022-08-25T07:08:14.814Z,1010.19
2022-08-25T07:09:14.856Z,1010.18
2022-08-25T07:10:14.813Z,1010.19
2022-08-25T07:11:16.508Z,1010.24
2022-08-25T07:12:14.780Z,1010.22
2022-08-25T07:13:14.734Z,1010.22
2022-08-25T07:14:14.721Z,1010.20
2022-08-25T07:15:20.485Z,1010.20
2022-08-25T07:16:14.725Z,1010.21
2022-08-25T07:17:14.674Z,1010.17
2022-08-25T07:18:14.657Z,1010.21
2022-08-25T07:19:14.849Z,1010.25
2022-08-25T07:20:14.659Z,1010.23
2022-08-25T07:21:14.611Z,1010.25
2022-08-25T07:22:14.600Z,1010.26
2022-08-25T07:23:14.579Z,1010.30
2022-08-25T07:24:14.566Z,1010.32
2022-08-25T07:25:14.583Z,1010.30
2022-08-25T07:26:34.071Z,1010.31
2022-08-25T07:27:14.516Z,1010.31
2022-08-25T07:28:14.840Z,1010.29
2022-08-25T07:29:14.488Z,1010.33
2022-08-25T07:30:14.477Z,1010.34
2022-08-25T07:31:14.495Z,1010.33
2022-08-25T07:32:14.444Z,1010.35
2022-08-25T07:33:14.490Z,1010.36
2022-08-25T07:34:14.411Z,1010.39
2022-08-25T07:35:14.394Z,1010.34
2022-08-25T07:36:14.384Z,1010.35
2022-08-25T07:37:23.799Z,1010.34
2022-08-25T07:38:19.726Z,1010.31
2022-08-25T07:39:14.333Z,1010.39
2022-08-25T07:40:14.389Z,1010.39
2022-08-25T07:41:14.305Z,1010.37
2022-08-25T07:42:14.291Z,1010.35
2022-08-25T07:43:14.274Z,1010.38
2022-08-25T07:44:14.260Z,1010.31
2022-08-25T07:45:14.244Z,1010.36
2022-08-25T07:46:14.285Z,1010.35
2022-08-25T07:47:14.214Z,1010.35
2022-08-25T07:48:14.198Z,1010.34
2022-08-25T07:49:16.737Z,1010.34
2022-08-25T07:51:14.241Z,1010.30
2022-08-25T07:52:14.139Z,1010.34
2022-08-25T07:53:14.123Z,1010.32
2022-08-25T07:54:14.110Z,1010.32
2022-08-25T07:55:17.810Z,1010.28
2022-08-25T07:56:14.112Z,1010.30
2022-08-25T07:57:14.060Z,1010.37
2022-08-25T07:58:14.050Z,1010.33
2022-08-25T07:59:14.052Z,1010.30
2022-08-25T08:00:14.017Z,1010.30
2022-08-25T08:01:14.002Z,1010.34
2022-08-25T08:02:18.199Z,1010.27
2022-08-25T08:03:35.183Z,1010.32
2022-08-25T08:04:14.045Z,1010.31
2022-08-25T08:05:13.944Z,1010.29
2022-08-25T08:06:13.942Z,1010.33
2022-08-25T08:07:13.912Z,1010.27
2022-08-25T08:08:13.929Z,1010.31
2022-08-25T08:09:13.883Z,1010.30
2022-08-25T08:11:13.858Z,1010.28
2022-08-25T08:12:13.845Z,1010.28
2022-08-25T08:13:18.002Z,1010.29
2022-08-25T08:14:13.875Z,1010.32
2022-08-25T08:15:13.798Z,1010.26
2022-08-25T08:16:13.833Z,1010.32
2022-08-25T08:17:13.775Z,1010.29
2022-08-25T08:18:13.779Z,1010.28
2022-08-25T08:19:14.070Z,1010.29
2022-08-25T08:20:13.731Z,1010.25
2022-08-25T08:21:13.707Z,1010.23
2022-08-25T08:22:13.693Z,1010.19
2022-08-25T08:23:13.691Z,1010.17
2022-08-25T08:24:31.139Z,1010.14
2022-08-25T08:25:16.320Z,1010.12
2022-08-25T08:26:13.644Z,1010.11
2022-08-25T08:27:13.628Z,1010.12
2022-08-25T08:28:13.622Z,1010.08
2022-08-25T08:29:13.591Z,1010.04
2022-08-25T08:30:13.585Z,1010.08
2022-08-25T08:31:13.602Z,1010.08
2022-08-25T08:32:13.564Z,1010.05
2022-08-25T08:33:13.598Z,1010.09
2022-08-25T08:34:13.536Z,1010.07
2022-08-25T08:35:13.509Z,1010.04
2022-08-25T08:36:13.492Z,1010.04
2022-08-25T08:37:13.480Z,1010.04
2022-08-25T08:38:18.432Z,1010.02
2022-08-25T08:39:13.439Z,1010.03
2022-08-25T08:40:13.526Z,1010.03
2022-08-25T08:41:13.448Z,1010.01
2022-08-25T08:42:16.712Z,1010.01
2022-08-25T08:43:17.993Z,1010.01
2022-08-25T08:44:13.384Z,1009.98
2022-08-25T08:45:13.354Z,1009.99
2022-08-25T08:46:13.424Z,1009.96
2022-08-25T08:47:13.325Z,1009.99
2022-08-25T08:48:13.322Z,1009.97
2022-08-25T08:49:13.297Z,1009.95
2022-08-25T08:50:13.280Z,1009.99
2022-08-25T08:51:13.272Z,1009.93
2022-08-25T08:52:13.252Z,1009.99
2022-08-25T08:53:13.239Z,1009.95
2022-08-25T08:54:15.438Z,1009.94
2022-08-25T08:55:13.210Z,1009.95
2022-08-25T08:56:13.197Z,1009.90
2022-08-25T08:57:13.177Z,1009.90
2022-08-25T08:58:13.163Z,1009.88
2022-08-25T08:59:13.149Z,1009.88
2022-08-25T09:00:13.134Z,1009.84
2022-08-25T09:01:13.153Z,1009.84
2022-08-25T09:02:13.864Z,1009.88
2022-08-25T09:03:13.129Z,1009.83
2022-08-25T09:04:13.078Z,1009.83
2022-08-25T09:05:13.062Z,1009.80
2022-08-25T09:06:13.049Z,1009.81
2022-08-25T09:07:13.048Z,1009.74
2022-08-25T09:08:13.019Z,1009.76
2022-08-25T09:09:13.010Z,1009.76
2022-08-25T09:10:12.991Z,1009.76
2022-08-25T09:11:12.977Z,1009.70
2022-08-25T09:12:12.963Z,1009.74
2022-08-25T09:13:13.043Z,1009.74
2022-08-25T09:14:12.935Z,1009.71
2022-08-25T09:15:13.458Z,1009.73
2022-08-25T09:16:20.508Z,1009.71
2022-08-25T09:17:12.892Z,1009.72
2022-08-25T09:18:13.153Z,1009.69
2022-08-25T09:19:12.863Z,1009.71
2022-08-25T09:20:18.691Z,1009.69
2022-08-25T09:21:12.836Z,1009.68
2022-08-25T09:22:35.116Z,1009.66
2022-08-25T09:23:12.807Z,1009.69
2022-08-25T09:24:12.795Z,1009.68
2022-08-25T09:25:12.778Z,1009.70
2022-08-25T09:26:12.766Z,1009.68
2022-08-25T09:27:12.750Z,1009.67
2022-08-25T09:28:12.740Z,1009.66
2022-08-25T09:29:16.971Z,1009.64
2022-08-25T09:30:12.711Z,1009.66
2022-08-25T09:31:12.736Z,1009.65
2022-08-25T09:32:12.689Z,1009.63
2022-08-25T09:33:12.669Z,1009.62
2022-08-25T09:34:12.652Z,1009.61
2022-08-25T09:35:12.638Z,1009.56
2022-08-25T09:36:12.629Z,1009.56
2022-08-25T09:37:12.610Z,1009.56
2022-08-25T09:38:12.598Z,1009.55
2022-08-25T09:39:12.580Z,1009.56
2022-08-25T09:40:12.641Z,1009.55
2022-08-25T09:41:12.552Z,1009.58
2022-08-25T09:42:12.541Z,1009.61
2022-08-25T09:43:12.527Z,1009.60
2022-08-25T09:44:12.513Z,1009.57
2022-08-25T09:45:12.498Z,1009.50
2022-08-25T09:46:12.525Z,1009.54
2022-08-25T09:47:12.469Z,1009.48
2022-08-25T09:48:12.459Z,1009.45
2022-08-25T09:49:12.441Z,1009.41
2022-08-25T09:50:12.507Z,1009.41
2022-08-25T09:51:12.416Z,1009.44
2022-08-25T09:52:12.778Z,1009.41
2022-08-25T09:53:18.551Z,1009.44
2022-08-25T09:54:12.374Z,1009.47
2022-08-25T09:55:13.293Z,1009.48
2022-08-25T09:56:12.348Z,1009.41
2022-08-25T09:57:12.332Z,1009.42
2022-08-25T09:58:12.320Z,1009.44
2022-08-25T09:59:15.611Z,1009.44
2022-08-25T10:00:12.293Z,1009.39
2022-08-25T10:01:12.347Z,1009.36
2022-08-25T10:02:12.265Z,1009.37
2022-08-25T10:03:12.260Z,1009.34
2022-08-25T10:04:17.721Z,1009.30
2022-08-25T10:05:12.314Z,1009.27
2022-08-25T10:06:12.877Z,1009.28
2022-08-25T10:07:12.200Z,1009.24
2022-08-25T10:08:14.701Z,1009.22
2022-08-25T10:09:12.180Z,1009.21
2022-08-25T10:10:12.160Z,1009.21
2022-08-25T10:11:12.149Z,1009.14
2022-08-25T10:12:12.139Z,1009.15
2022-08-25T10:13:12.127Z,1009.18
2022-08-25T10:14:12.112Z,1009.18
2022-08-25T10:15:12.100Z,1009.16
2022-08-25T10:16:24.143Z,1009.17
2022-08-25T10:17:12.075Z,1009.09
2022-08-25T10:18:12.062Z,1009.13
2022-08-25T10:19:12.054Z,1009.11
2022-08-25T10:20:12.134Z,1009.08
2022-08-25T10:21:12.029Z,1009.05
2022-08-25T10:22:12.014Z,1009.08
2022-08-25T10:23:12.033Z,1009.00
2022-08-25T10:24:11.998Z,1009.00
2022-08-25T10:25:11.989Z,1009.02
2022-08-25T10:26:11.963Z,1008.99
2022-08-25T10:27:11.958Z,1008.97
2022-08-25T10:28:11.943Z,1008.98
2022-08-25T10:29:11.933Z,1008.92
2022-08-25T10:30:11.969Z,1008.87
2022-08-25T10:31:11.969Z,1008.81
2022-08-25T10:32:12.363Z,1008.83
2022-08-25T10:33:11.886Z,1008.79
2022-08-25T10:34:11.873Z,1008.76
2022-08-25T10:35:12.098Z,1008.78
2022-08-25T10:36:11.851Z,1008.76
2022-08-25T10:37:11.842Z,1008.79
2022-08-25T10:38:11.826Z,1008.80
2022-08-25T10:39:33.812Z,1008.78
2022-08-25T10:40:12.235Z,1008.78
2022-08-25T10:41:11.828Z,1008.79
2022-08-25T10:42:13.136Z,1008.72
2022-08-25T10:43:11.771Z,1008.78
2022-08-25T10:44:11.844Z,1008.77
2022-08-25T10:45:16.208Z,1008.73
2022-08-25T10:46:11.780Z,1008.71
2022-08-25T10:47:11.729Z,1008.78
2022-08-25T10:48:11.712Z,1008.68
2022-08-25T10:49:11.706Z,1008.69
2022-08-25T10:50:11.719Z,1008.73
2022-08-25T10:51:15.841Z,1008.70
2022-08-25T10:52:11.669Z,1008.63
2022-08-25T10:53:11.659Z,1008.64
2022-08-25T10:54:11.677Z,1008.62
2022-08-25T10:55:11.633Z,1008.63
2022-08-25T10:56:11.620Z,1008.66
2022-08-25T10:57:11.612Z,1008.63
2022-08-25T10:58:11.599Z,1008.61
2022-08-25T10:59:11.662Z,1008.62
2022-08-25T11:00:11.583Z,1008.59
2022-08-25T11:01:11.656Z,1008.60
2022-08-25T11:02:11.556Z,1008.62
2022-08-25T11:03:11.543Z,1008.63
2022-08-25T11:04:11.626Z,1008.62
2022-08-25T11:05:11.614Z,1008.64
2022-08-25T11:06:11.518Z,1008.60
2022-08-25T11:07:11.502Z,1008.51
2022-08-25T11:08:11.770Z,1008.54
2022-08-25T11:09:11.477Z,1008.48
2022-08-25T11:10:11.473Z,1008.53
2022-08-25T11:11:11.455Z,1008.54
2022-08-25T11:12:11.443Z,1008.55
2022-08-25T11:13:11.524Z,1008.54
2022-08-25T11:14:11.657Z,1008.51
2022-08-25T11:15:11.409Z,1008.51
2022-08-25T11:16:17.540Z,1008.50
2022-08-25T11:17:11.523Z,1008.49
2022-08-25T11:18:15.021Z,1008.42
2022-08-25T11:19:11.365Z,1008.46
2022-08-25T11:20:14.048Z,1008.47
2022-08-25T11:21:11.346Z,1008.46
2022-08-25T11:22:11.328Z,1008.43
2022-08-25T11:23:11.501Z,1008.42
2022-08-25T11:24:11.308Z,1008.40
2022-08-25T11:25:11.301Z,1008.41
2022-08-25T11:26:11.285Z,1008.42
2022-08-25T11:27:13.815Z,1008.41
2022-08-25T11:28:11.265Z,1008.42
2022-08-25T11:29:12.218Z,1008.44
2022-08-25T11:30:11.241Z,1008.43
2022-08-25T11:31:11.308Z,1008.42
2022-08-25T11:32:11.219Z,1008.40
2022-08-25T11:33:11.208Z,1008.34
2022-08-25T11:34:11.193Z,1008.39
2022-08-25T11:35:12.217Z,1008.42
2022-08-25T11:36:11.174Z,1008.42
2022-08-25T11:37:11.598Z,1008.41
2022-08-25T11:38:11.159Z,1008.43
2022-08-25T11:39:11.142Z,1008.44
2022-08-25T11:40:11.191Z,1008.43
2022-08-25T11:41:11.622Z,1008.42
2022-08-25T11:42:11.102Z,1008.39
2022-08-25T11:43:11.092Z,1008.40
2022-08-25T11:44:11.087Z,1008.36
2022-08-25T11:45:11.072Z,1008.40
2022-08-25T11:46:11.127Z,1008.37
2022-08-25T11:47:14.725Z,1008.38
2022-08-25T11:48:11.032Z,1008.35
2022-08-25T11:49:11.024Z,1008.31
2022-08-25T11:50:11.007Z,1008.38
2022-08-25T11:51:10.998Z,1008.37
2022-08-25T11:52:10.985Z,1008.38
2022-08-25T11:53:11.403Z,1008.35
2022-08-25T11:54:10.967Z,1008.28
2022-08-25T11:55:10.952Z,1008.32
2022-08-25T11:56:10.937Z,1008.26
2022-08-25T11:57:10.927Z,1008.27
2022-08-25T11:58:10.913Z,1008.25
2022-08-25T11:59:10.928Z,1008.28
2022-08-25T12:00:10.889Z,1008.28
2022-08-25T12:01:10.880Z,1008.25
2022-08-25T12:02:10.905Z,1008.25
2022-08-25T12:03:10.858Z,1008.26
2022-08-25T12:04:10.935Z,1008.25
2022-08-25T12:05:10.916Z,1008.26
2022-08-25T12:06:10.845Z,1008.25
2022-08-25T12:07:10.823Z,1008.24
2022-08-25T12:08:10.797Z,1008.29
2022-08-25T12:09:10.807Z,1008.23
2022-08-25T12:10:10.772Z,1008.27
2022-08-25T12:11:11.873Z,1008.20
2022-08-25T12:12:10.773Z,1008.21
2022-08-25T12:13:10.753Z,1008.19